Terminal Aerodrome Forecast
Issued by NWS Dallas/Fort Worth, TX

Home | Current Version | Previous Version | Text Only | Print | Product List | Glossary On
Versions: 1 2 3 4 5 6 7 8 9 10 11 12 13 14 15 16 17 18 19 20 21 22 23 24 25 26 27
000
FTUS44 KFWD 240855 CCA
TAFACT
TAF COR
KACT 240855Z 2409/2506 16010KT P6SM VCTS SCT015CB BKN050
      TEMPO 2409/2412 36015G25KT 3SM TSRA BKN015CB
     FM241300 04007KT P6SM VCTS SCT020 BKN040CB OVC150
     FM241800 03008KT P6SM -SHRA BKN025 BKN150
     FM242000 03008KT P6SM SCT025 BKN035=

USA.gov is the U.S. government's official web portal to all federal, state and local government web resources and services.